Time;durP1;ratioP1;P1;durP2;ratioP2;P2;SDS_P1;SDS_P2;PMS_P1;PMS_P2;Temp;Humidity;BMP_temperature;BMP_pressure;BME280_temperature;BME280_humidity;BME280_pressure;Samples;Min_cycle;Max_cycle;Signal;HPM_P1;HPM_P2
2023/08/21 00:00:49;;;;;;;0.00;0.00;;;23.40;99.90;;;;;;5051111;28;20173;-63
2023/08/21 00:03:14;;;;;;;0.00;0.00;;;23.40;99.90;;;;;;5050775;28;20181;-63
2023/08/21 00:05:40;;;;;;;0.00;0.00;;;23.30;99.90;;;;;;5049854;28;20169;-64
2023/08/21 00:08:05;;;;;;;0.00;0.00;;;23.20;99.90;;;;;;5050853;28;20178;-64
2023/08/21 00:10:32;;;;;;;0.00;0.00;;;23.20;99.90;;;;;;5050792;28;20185;-63
2023/08/21 00:12:59;;;;;;;0.00;0.00;;;23.20;99.90;;;;;;5050606;28;20217;-63
2023/08/21 00:15:24;;;;;;;0.00;0.00;;;23.20;99.90;;;;;;5049603;28;20641;-63
2023/08/21 00:17:50;;;;;;;0.00;0.00;;;23.10;99.90;;;;;;5050877;28;20235;-63
2023/08/21 00:20:16;;;;;;;0.03;0.03;;;23.10;99.90;;;;;;5050748;28;20513;-64
2023/08/21 00:22:41;;;;;;;0.10;0.10;;;23.10;99.90;;;;;;5050805;28;20176;-63
2023/08/21 00:25:07;;;;;;;0.20;0.20;;;23.10;99.90;;;;;;5050704;28;20178;-63
2023/08/21 00:27:32;;;;;;;0.00;0.00;;;23.10;99.90;;;;;;5050888;28;20184;-63
2023/08/21 00:30:00;;;;;;;0.00;0.00;;;23.00;99.90;;;;;;5050408;28;20217;-63
2023/08/21 00:32:25;;;;;;;0.00;0.00;;;23.00;99.90;;;;;;5050611;28;20224;-63
2023/08/21 00:34:51;;;;;;;0.00;0.00;;;23.00;99.90;;;;;;5050728;28;20528;-63
2023/08/21 00:37:17;;;;;;;0.00;0.00;;;23.00;99.90;;;;;;5051637;28;20190;-63
2023/08/21 00:39:42;;;;;;;0.00;0.00;;;23.00;99.90;;;;;;5054673;28;20668;-63
2023/08/21 00:42:08;;;;;;;0.00;0.00;;;23.00;99.90;;;;;;5054556;28;20181;-63
2023/08/21 00:44:33;;;;;;;0.00;0.00;;;22.90;99.90;;;;;;5054697;28;20180;-64
2023/08/21 00:46:59;;;;;;;0.00;0.00;;;22.90;99.90;;;;;;5054435;28;20181;-63
2023/08/21 00:49:25;;;;;;;0.00;0.00;;;22.90;99.90;;;;;;5054586;28;20170;-63
2023/08/21 00:51:51;;;;;;;0.00;0.00;;;22.90;99.90;;;;;;5054420;28;20359;-63
2023/08/21 00:54:17;;;;;;;0.00;0.00;;;22.90;99.90;;;;;;5054407;28;20177;-64
2023/08/21 00:56:43;;;;;;;0.00;0.00;;;22.80;99.90;;;;;;5054536;28;20651;-63
2023/08/21 00:59:09;;;;;;;0.00;0.00;;;22.80;99.90;;;;;;5054372;28;20178;-63
2023/08/21 01:01:35;;;;;;;0.00;0.00;;;22.80;99.90;;;;;;5054411;28;20571;-63
2023/08/21 01:04:01;;;;;;;0.00;0.00;;;22.70;99.90;;;;;;5054074;28;20514;-63
2023/08/21 01:06:27;;;;;;;0.00;0.00;;;22.70;99.90;;;;;;5054073;28;20178;-63
2023/08/21 01:09:23;;;;;;;0.00;0.00;;;22.60;99.90;;;;;;5052807;28;20276;-63
2023/08/21 01:12:13;;;;;;;0.00;0.00;;;22.60;99.90;;;;;;5054015;28;20220;-63
2023/08/21 01:14:58;;;;;;;0.00;0.00;;;22.50;99.90;;;;;;5043071;28;20182;-63
2023/08/21 01:17:25;;;;;;;0.00;0.00;;;22.60;99.90;;;;;;5054075;28;20670;-63
2023/08/21 01:19:52;;;;;;;0.00;0.00;;;22.50;99.90;;;;;;5053894;28;20166;-63
2023/08/21 01:22:18;;;;;;;0.00;0.00;;;22.50;99.90;;;;;;5053637;28;20260;-63
2023/08/21 01:24:43;;;;;;;0.00;0.00;;;22.40;99.90;;;;;;5053808;28;20602;-63
2023/08/21 01:27:12;;;;;;;0.00;0.00;;;22.40;99.90;;;;;;5053761;28;20182;-63
2023/08/21 01:29:37;;;;;;;0.00;0.00;;;22.40;99.90;;;;;;5053289;28;20692;-64
2023/08/21 01:32:24;;;;;;;0.00;0.00;;;22.40;99.90;;;;;;5053404;28;20217;-64
2023/08/21 01:34:51;;;;;;;0.00;0.00;;;22.30;99.90;;;;;;5053459;28;20177;-63
2023/08/21 01:37:17;;;;;;;0.00;0.00;;;22.40;99.90;;;;;;5053462;28;20213;-63
2023/08/21 01:39:43;;;;;;;0.00;0.00;;;22.30;99.90;;;;;;5053472;28;20165;-63
2023/08/21 01:42:09;;;;;;;0.00;0.00;;;22.30;99.90;;;;;;5053483;28;20181;-63
2023/08/21 01:44:34;;;;;;;0.00;0.00;;;22.20;99.90;;;;;;5053489;28;20238;-64
2023/08/21 01:47:00;;;;;;;0.00;0.00;;;22.20;99.90;;;;;;5053303;28;20161;-63
2023/08/21 01:49:25;;;;;;;0.10;0.10;;;22.20;99.90;;;;;;5052222;28;20186;-63
2023/08/21 01:51:51;;;;;;;0.00;0.00;;;22.20;99.90;;;;;;5053263;28;20213;-63
2023/08/21 01:54:16;;;;;;;0.10;0.10;;;22.10;99.90;;;;;;5053224;28;20227;-64
2023/08/21 01:56:42;;;;;;;0.00;0.00;;;22.10;99.90;;;;;;5053464;28;20170;-64
2023/08/21 01:59:07;;;;;;;0.00;0.00;;;22.20;99.90;;;;;;5053142;28;20197;-64
2023/08/21 02:01:33;;;;;;;0.00;0.00;;;22.10;99.90;;;;;;5053269;28;20261;-64
2023/08/21 02:03:59;;;;;;;0.10;0.10;;;22.10;99.90;;;;;;5053320;28;20168;-64
2023/08/21 02:06:24;;;;;;;0.00;0.00;;;22.10;99.90;;;;;;5053181;28;20170;-63
2023/08/21 02:08:50;;;;;;;0.00;0.00;;;22.10;99.90;;;;;;5053238;28;20185;-63
2023/08/21 02:11:15;;;;;;;0.00;0.00;;;22.10;99.90;;;;;;5052900;28;20181;-63
2023/08/21 02:13:41;;;;;;;0.00;0.00;;;22.00;99.90;;;;;;5052989;28;20181;-63
2023/08/21 02:16:07;;;;;;;0.00;0.00;;;22.00;99.90;;;;;;5052938;28;20169;-64
2023/08/21 02:18:32;;;;;;;0.13;0.13;;;22.00;99.90;;;;;;5052928;28;20185;-63
2023/08/21 02:21:00;;;;;;;0.00;0.00;;;22.00;99.90;;;;;;5052738;28;20206;-63
2023/08/21 02:23:25;;;;;;;0.00;0.00;;;21.90;99.90;;;;;;5052671;28;20264;-63
2023/08/21 02:25:51;;;;;;;0.00;0.00;;;21.90;99.90;;;;;;5051457;28;20278;-63
2023/08/21 02:28:16;;;;;;;0.00;0.00;;;21.90;99.90;;;;;;5052506;28;20173;-63
2023/08/21 02:30:42;;;;;;;0.10;0.10;;;21.90;99.90;;;;;;5052665;28;20178;-63
2023/08/21 02:33:08;;;;;;;0.00;0.00;;;21.80;99.90;;;;;;5052619;28;20267;-63
2023/08/21 02:35:33;;;;;;;0.00;0.00;;;21.80;99.90;;;;;;5052714;28;20182;-64
2023/08/21 02:37:59;;;;;;;0.00;0.00;;;21.80;99.90;;;;;;5052467;28;20170;-63
2023/08/21 02:40:24;;;;;;;0.00;0.00;;;21.80;99.90;;;;;;5052458;28;20196;-63
2023/08/21 02:42:50;;;;;;;0.00;0.00;;;21.80;99.90;;;;;;5052366;28;20182;-63
2023/08/21 02:45:16;;;;;;;0.03;0.03;;;21.70;99.90;;;;;;5052366;28;20177;-64
2023/08/21 02:47:42;;;;;;;0.00;0.00;;;21.70;99.90;;;;;;5034568;28;20208;-63
2023/08/21 02:50:09;;;;;;;0.00;0.00;;;21.70;99.90;;;;;;5052348;28;20220;-64
2023/08/21 02:52:35;;;;;;;0.00;0.00;;;21.70;99.90;;;;;;5052372;28;20300;-64
2023/08/21 02:55:02;;;;;;;0.00;0.00;;;21.70;99.90;;;;;;5052087;28;20458;-63
2023/08/21 02:57:28;;;;;;;0.00;0.00;;;21.70;99.90;;;;;;5052467;28;20182;-63
2023/08/21 02:59:55;;;;;;;0.00;0.00;;;21.70;99.90;;;;;;5051705;28;20375;-63
2023/08/21 03:02:21;;;;;;;0.05;0.05;;;21.70;99.90;;;;;;5052152;28;20193;-63
2023/08/21 03:04:47;;;;;;;0.00;0.00;;;21.70;99.90;;;;;;5052191;28;20177;-63
2023/08/21 03:07:12;;;;;;;0.20;0.20;;;21.70;99.90;;;;;;5051914;28;20178;-63
2023/08/21 03:09:39;;;;;;;0.08;0.08;;;21.70;99.90;;;;;;5050633;28;20260;-63
2023/08/21 03:12:05;;;;;;;0.00;0.00;;;21.70;99.90;;;;;;5051768;28;20266;-63
2023/08/21 03:14:31;;;;;;;0.00;0.00;;;21.60;99.90;;;;;;5051772;28;20173;-63
2023/08/21 03:16:56;;;;;;;0.10;0.10;;;21.70;99.90;;;;;;5051677;28;20545;-63
2023/08/21 03:19:22;;;;;;;0.00;0.00;;;21.60;99.90;;;;;;5051911;28;20185;-63
2023/08/21 03:21:48;;;;;;;0.00;0.00;;;21.50;99.90;;;;;;5051811;28;20186;-63
2023/08/21 03:24:14;;;;;;;0.00;0.00;;;21.50;99.90;;;;;;5051440;28;20181;-64
2023/08/21 03:26:39;;;;;;;0.00;0.00;;;21.40;99.90;;;;;;5051262;28;20200;-63
2023/08/21 03:29:05;;;;;;;0.00;0.00;;;21.40;99.90;;;;;;5051220;28;20708;-63
2023/08/21 03:31:31;;;;;;;0.00;0.00;;;21.40;99.90;;;;;;5051338;28;20173;-63
2023/08/21 03:33:56;;;;;;;0.10;0.10;;;21.30;99.90;;;;;;5051082;28;20186;-63
2023/08/21 03:36:31;;;;;;;0.00;0.00;;;21.40;99.90;;;;;;5051371;28;20177;-63
2023/08/21 03:39:00;;;;;;;0.00;0.00;;;21.30;99.90;;;;;;5051093;28;20196;-63
2023/08/21 03:41:27;;;;;;;0.00;0.00;;;21.40;99.90;;;;;;5051325;28;20215;-63
2023/08/21 03:43:53;;;;;;;0.00;0.00;;;21.30;99.90;;;;;;5051313;28;20205;-63
2023/08/21 03:46:18;;;;;;;0.00;0.00;;;21.40;99.90;;;;;;5051110;28;20629;-63
2023/08/21 03:48:44;;;;;;;0.13;0.13;;;21.30;99.90;;;;;;5051137;28;20181;-64
2023/08/21 03:51:10;;;;;;;0.00;0.00;;;21.30;99.90;;;;;;5049761;28;20824;-64
2023/08/21 03:53:35;;;;;;;0.00;0.00;;;21.30;99.90;;;;;;5050893;28;20225;-63
2023/08/21 03:56:01;;;;;;;0.00;0.00;;;21.30;99.90;;;;;;5050957;28;20276;-63
2023/08/21 03:58:26;;;;;;;0.10;0.00;;;21.30;99.90;;;;;;5051081;28;20185;-64
2023/08/21 04:00:53;;;;;;;0.00;0.00;;;21.30;99.90;;;;;;5050905;28;20244;-63
2023/08/21 04:03:19;;;;;;;0.00;0.00;;;21.20;99.90;;;;;;5050789;28;20234;-63
2023/08/21 04:05:44;;;;;;;0.00;0.00;;;21.20;99.90;;;;;;5050886;28;20177;-63
2023/08/21 04:08:10;;;;;;;0.00;0.00;;;21.20;99.90;;;;;;5050891;28;20181;-63
2023/08/21 04:10:35;;;;;;;0.00;0.00;;;21.20;99.90;;;;;;5050896;28;20185;-63
2023/08/21 04:13:01;;;;;;;0.00;0.00;;;21.20;99.90;;;;;;5054701;28;20689;-62
2023/08/21 04:15:27;;;;;;;0.00;0.00;;;21.20;99.90;;;;;;5055139;28;20177;-63
2023/08/21 04:17:52;;;;;;;0.15;0.10;;;21.10;99.90;;;;;;5054946;28;20231;-63
2023/08/21 04:20:21;;;;;;;0.00;0.00;;;21.10;99.90;;;;;;5054782;28;20229;-63
2023/08/21 04:22:46;;;;;;;0.00;0.00;;;21.10;99.90;;;;;;5053764;28;20664;-63
2023/08/21 04:25:12;;;;;;;0.00;0.00;;;21.10;99.90;;;;;;5054980;28;20185;-64
2023/08/21 04:27:38;;;;;;;0.00;0.00;;;21.10;99.90;;;;;;5054946;28;20178;-63
2023/08/21 04:30:04;;;;;;;0.00;0.00;;;21.10;99.90;;;;;;5054496;28;20705;-63
2023/08/21 04:32:30;;;;;;;0.00;0.00;;;21.10;99.90;;;;;;5054628;28;20212;-63
2023/08/21 04:34:56;;;;;;;0.00;0.00;;;21.10;99.90;;;;;;5054819;28;20186;-63
2023/08/21 04:37:21;;;;;;;0.00;0.00;;;21.10;99.90;;;;;;5054746;28;20200;-63
2023/08/21 04:39:51;;;;;;;0.00;0.00;;;21.10;99.90;;;;;;5054804;28;20164;-63
2023/08/21 04:42:17;;;;;;;0.00;0.00;;;21.10;99.90;;;;;;5054738;28;20268;-63
2023/08/21 04:44:42;;;;;;;0.10;0.10;;;21.10;99.90;;;;;;5054605;28;20252;-64
2023/08/21 04:47:26;;;;;;;0.90;0.85;;;21.20;99.90;;;;;;5054881;28;20178;-63
2023/08/21 04:49:52;;;;;;;0.00;0.00;;;21.20;99.90;;;;;;5054678;28;20195;-64
2023/08/21 04:52:18;;;;;;;0.00;0.00;;;21.20;99.90;;;;;;5054410;28;20217;-63
2023/08/21 04:54:44;;;;;;;0.08;0.08;;;21.20;99.90;;;;;;5054978;28;20178;-63
2023/08/21 04:57:09;;;;;;;0.00;0.00;;;21.30;99.90;;;;;;5054377;28;20499;-64
2023/08/21 04:59:36;;;;;;;0.00;0.00;;;21.30;99.90;;;;;;5054483;28;20185;-64
2023/08/21 05:02:02;;;;;;;0.00;0.00;;;21.30;99.90;;;;;;5054662;28;20652;-63
2023/08/21 05:04:27;;;;;;;0.00;0.00;;;21.40;99.90;;;;;;5054394;28;20663;-63
2023/08/21 05:06:53;;;;;;;0.10;0.10;;;21.40;99.90;;;;;;5054335;28;20165;-63
2023/08/21 05:09:18;;;;;;;0.00;0.00;;;21.40;99.90;;;;;;5054247;28;20529;-63
2023/08/21 05:11:44;;;;;;;0.10;0.10;;;21.50;99.90;;;;;;5054236;28;20562;-63
2023/08/21 05:14:10;;;;;;;0.13;0.13;;;21.60;99.90;;;;;;5054282;28;20256;-64
2023/08/21 05:16:35;;;;;;;0.00;0.00;;;21.70;99.90;;;;;;5054080;28;20521;-64
2023/08/21 05:19:01;;;;;;;0.00;0.00;;;21.90;99.90;;;;;;5054127;28;20261;-63
2023/08/21 05:21:27;;;;;;;0.55;0.25;;;22.10;99.90;;;;;;5054191;28;20502;-63
2023/08/21 05:23:52;;;;;;;0.00;0.00;;;22.20;99.90;;;;;;5053918;28;20177;-63
2023/08/21 05:26:19;;;;;;;0.00;0.00;;;22.50;99.90;;;;;;5053839;28;20169;-64
2023/08/21 05:28:44;;;;;;;0.10;0.10;;;22.80;99.90;;;;;;5053979;28;20271;-64
2023/08/21 05:31:10;;;;;;;0.38;0.22;;;23.00;99.90;;;;;;5052673;28;20177;-63
2023/08/21 05:33:35;;;;;;;0.00;0.00;;;23.20;99.90;;;;;;5053934;28;20221;-63
2023/08/21 05:36:01;;;;;;;0.08;0.08;;;23.40;99.90;;;;;;5053819;28;20230;-64
2023/08/21 05:38:26;;;;;;;0.00;0.00;;;23.60;99.90;;;;;;5053667;28;20235;-63
2023/08/21 05:40:53;;;;;;;0.00;0.00;;;23.80;99.90;;;;;;5053440;28;20230;-64
2023/08/21 05:43:18;;;;;;;0.00;0.00;;;23.90;99.90;;;;;;5053305;28;20178;-64
2023/08/21 05:45:44;;;;;;;0.00;0.00;;;24.20;99.90;;;;;;5053398;28;20184;-64
2023/08/21 05:48:09;;;;;;;0.00;0.00;;;24.40;99.90;;;;;;5053187;28;20668;-63
2023/08/21 05:50:36;;;;;;;0.00;0.00;;;24.70;99.90;;;;;;5053285;28;20199;-64
2023/08/21 05:53:06;;;;;;;0.22;0.22;;;25.10;99.90;;;;;;5052928;28;20217;-64
2023/08/21 05:55:32;;;;;;;0.00;0.00;;;25.50;99.90;;;;;;5053144;28;20629;-64
2023/08/21 05:57:58;;;;;;;0.10;0.10;;;25.90;99.90;;;;;;5052912;28;20235;-64
2023/08/21 06:00:23;;;;;;;0.00;0.00;;;26.30;99.90;;;;;;5053133;28;20591;-63
2023/08/21 06:02:49;;;;;;;0.00;0.00;;;26.60;99.90;;;;;;5052999;28;20573;-64
2023/08/21 06:05:15;;;;;;;0.30;0.30;;;27.00;99.90;;;;;;5052925;28;20506;-64
2023/08/21 06:07:40;;;;;;;0.10;0.10;;;27.30;99.90;;;;;;5052932;28;20180;-64
2023/08/21 06:10:08;;;;;;;0.17;0.17;;;27.70;99.90;;;;;;5052689;28;20227;-64
2023/08/21 06:12:33;;;;;;;0.00;0.00;;;27.90;99.90;;;;;;5052759;28;20231;-64
2023/08/21 06:14:59;;;;;;;0.00;0.00;;;28.10;99.90;;;;;;5052723;28;20173;-64
2023/08/21 06:17:26;;;;;;;0.00;0.00;;;28.20;99.90;;;;;;5051498;28;20169;-63
2023/08/21 06:19:52;;;;;;;0.00;0.00;;;28.60;99.90;;;;;;5053216;28;20177;-64
2023/08/21 06:22:17;;;;;;;0.00;0.00;;;29.00;99.90;;;;;;5052696;28;20247;-63
2023/08/21 06:24:43;;;;;;;0.10;0.10;;;29.30;99.90;;;;;;5053430;28;20705;-64
2023/08/21 06:27:08;;;;;;;0.00;0.00;;;29.90;99.90;;;;;;5052616;28;20181;-63
2023/08/21 06:29:34;;;;;;;0.00;0.00;;;30.30;99.00;;;;;;5052633;28;20308;-63
2023/08/21 06:32:00;;;;;;;0.00;0.00;;;30.70;98.70;;;;;;5052457;28;20686;-64
2023/08/21 06:34:25;;;;;;;0.00;0.00;;;31.10;97.80;;;;;;5052145;28;20193;-63
2023/08/21 06:36:51;;;;;;;0.00;0.00;;;31.60;96.60;;;;;;5052881;28;20169;-63
2023/08/21 06:39:16;;;;;;;0.00;0.00;;;31.90;96.20;;;;;;5052454;28;20234;-63
2023/08/21 06:41:42;;;;;;;0.00;0.00;;;32.30;95.70;;;;;;5052542;28;20177;-64
2023/08/21 06:44:07;;;;;;;0.00;0.00;;;32.70;94.60;;;;;;5052280;28;20538;-61
2023/08/21 06:46:34;;;;;;;0.00;0.00;;;33.00;93.50;;;;;;5052287;28;20705;-61
2023/08/21 06:48:59;;;;;;;0.00;0.00;;;33.40;93.00;;;;;;5050782;28;20208;-62
2023/08/21 06:51:25;;;;;;;0.22;0.13;;;33.70;92.20;;;;;;5052201;28;20192;-62
2023/08/21 06:53:50;;;;;;;0.00;0.00;;;34.00;91.60;;;;;;5051923;28;20189;-62
2023/08/21 06:56:16;;;;;;;0.00;0.00;;;34.40;90.70;;;;;;5051861;28;20208;-61
2023/08/21 06:58:42;;;;;;;0.00;0.00;;;34.70;88.40;;;;;;5051922;28;20248;-62
2023/08/21 07:01:07;;;;;;;0.22;0.22;;;34.90;87.00;;;;;;5051846;28;20546;-62
2023/08/21 07:03:33;;;;;;;0.00;0.00;;;35.20;86.30;;;;;;5051852;28;20187;-62
2023/08/21 07:05:59;;;;;;;0.00;0.00;;;35.50;84.30;;;;;;5051707;28;20169;-62
2023/08/21 07:08:26;;;;;;;0.00;0.00;;;35.70;81.90;;;;;;5051886;28;20513;-62
2023/08/21 07:10:52;;;;;;;0.00;0.00;;;36.10;80.10;;;;;;5051713;28;20271;-61
2023/08/21 07:13:18;;;;;;;0.00;0.00;;;36.00;80.60;;;;;;5051443;28;20227;-61
2023/08/21 07:15:44;;;;;;;0.00;0.00;;;36.20;79.80;;;;;;5051683;28;20221;-62
2023/08/21 07:18:10;;;;;;;0.00;0.00;;;36.40;78.40;;;;;;5051367;28;20181;-62
2023/08/21 07:20:36;;;;;;;0.00;0.00;;;36.70;78.00;;;;;;5051476;28;20177;-62
2023/08/21 07:23:01;;;;;;;0.00;0.00;;;36.90;77.40;;;;;;5051538;28;20169;-62
2023/08/21 07:25:28;;;;;;;0.10;0.10;;;37.20;76.10;;;;;;5052006;28;20181;-61
2023/08/21 07:27:54;;;;;;;0.00;0.00;;;37.50;74.30;;;;;;5051755;28;20234;-61
2023/08/21 07:30:20;;;;;;;0.00;0.00;;;37.70;71.50;;;;;;5051695;28;20236;-61
2023/08/21 07:32:47;;;;;;;0.00;0.00;;;37.90;71.50;;;;;;5051634;28;20243;-62
2023/08/21 07:35:12;;;;;;;0.10;0.10;;;38.00;71.80;;;;;;5051568;28;20169;-62
2023/08/21 07:37:38;;;;;;;0.10;0.05;;;38.10;70.60;;;;;;5051553;28;20265;-62
2023/08/21 07:40:05;;;;;;;0.00;0.00;;;38.30;69.00;;;;;;5051565;28;20219;-62
2023/08/21 07:42:30;;;;;;;0.00;0.00;;;38.40;68.20;;;;;;5051453;28;20173;-62
2023/08/21 07:44:56;;;;;;;0.20;0.20;;;38.40;67.40;;;;;;5051360;28;20180;-62
2023/08/21 07:47:21;;;;;;;0.00;0.00;;;38.30;67.20;;;;;;5050855;28;20265;-62
2023/08/21 07:49:47;;;;;;;0.00;0.00;;;38.20;68.40;;;;;;5051499;28;20205;-62
2023/08/21 07:52:12;;;;;;;0.00;0.00;;;38.30;68.20;;;;;;5051309;28;20216;-62
2023/08/21 07:54:38;;;;;;;0.00;0.00;;;38.40;68.70;;;;;;5051333;28;20655;-62
2023/08/21 07:57:04;;;;;;;0.00;0.00;;;38.60;67.10;;;;;;5050994;28;20516;-62
2023/08/21 07:59:29;;;;;;;0.00;0.00;;;38.80;65.80;;;;;;5051055;28;20180;-62
2023/08/21 08:01:55;;;;;;;0.00;0.00;;;38.80;65.80;;;;;;5051240;28;20234;-62
2023/08/21 08:04:21;;;;;;;0.00;0.00;;;38.90;65.30;;;;;;5051333;28;20213;-62
2023/08/21 08:06:47;;;;;;;0.00;0.00;;;39.10;63.60;;;;;;5051082;28;20187;-62
2023/08/21 08:09:12;;;;;;;0.00;0.00;;;39.30;64.20;;;;;;5051173;28;20268;-62
2023/08/21 08:11:38;;;;;;;0.00;0.00;;;39.40;63.40;;;;;;5051157;28;20311;-62
2023/08/21 08:14:03;;;;;;;0.10;0.10;;;39.40;64.90;;;;;;5051044;28;20299;-62
2023/08/21 08:16:29;;;;;;;0.00;0.00;;;39.50;64.10;;;;;;5051337;28;20180;-61
2023/08/21 08:18:54;;;;;;;0.00;0.00;;;39.60;63.30;;;;;;5051136;28;20173;-62
2023/08/21 08:21:20;;;;;;;0.03;0.03;;;39.60;63.20;;;;;;5051013;28;20175;-62
2023/08/21 08:23:46;;;;;;;0.00;0.00;;;39.60;62.50;;;;;;5051189;28;20632;-62
2023/08/21 08:26:11;;;;;;;0.00;0.00;;;39.60;63.70;;;;;;5051104;28;20644;-62
2023/08/21 08:28:37;;;;;;;0.00;0.00;;;39.60;62.20;;;;;;5050836;28;20224;-61
2023/08/21 08:31:02;;;;;;;0.10;0.10;;;39.60;64.10;;;;;;5051078;28;20208;-62
2023/08/21 08:33:28;;;;;;;0.00;0.00;;;39.70;62.60;;;;;;5051223;28;20557;-62
2023/08/21 08:35:53;;;;;;;0.00;0.00;;;39.60;63.10;;;;;;5050987;28;20169;-61
2023/08/21 08:38:19;;;;;;;0.10;0.10;;;39.70;61.80;;;;;;5050879;28;20236;-62
2023/08/21 08:40:47;;;;;;;0.05;0.05;;;39.80;61.80;;;;;;5051052;28;20267;-61
2023/08/21 08:43:13;;;;;;;0.32;0.32;;;39.90;61.20;;;;;;5051019;28;20212;-62
2023/08/21 08:45:41;;;;;;;0.00;0.00;;;40.00;60.50;;;;;;5050887;28;20197;-62
2023/08/21 08:48:07;;;;;;;0.08;0.08;;;39.90;60.30;;;;;;5050854;28;20644;-62
2023/08/21 08:50:33;;;;;;;0.03;0.03;;;39.60;60.70;;;;;;5050810;28;20267;-62
2023/08/21 08:53:00;;;;;;;0.00;0.00;;;39.50;63.30;;;;;;5050638;28;20216;-62
2023/08/21 08:55:26;;;;;;;0.03;0.03;;;39.60;62.80;;;;;;5050897;28;20588;-62
2023/08/21 08:57:53;;;;;;;0.00;0.00;;;39.60;64.10;;;;;;5052303;28;20212;-62
2023/08/21 09:00:22;;;;;;;0.08;0.08;;;39.60;63.20;;;;;;5054590;28;20189;-62
2023/08/21 09:02:48;;;;;;;0.03;0.03;;;39.30;61.20;;;;;;5054804;28;20529;-62
2023/08/21 09:05:13;;;;;;;0.00;0.00;;;39.00;62.60;;;;;;5054469;28;20211;-62
2023/08/21 09:07:39;;;;;;;0.00;0.00;;;38.80;65.30;;;;;;5054310;28;20212;-62
2023/08/21 09:10:13;;;;;;;0.28;0.28;;;38.80;66.50;;;;;;5054287;28;20180;-62
2023/08/21 09:12:39;;;;;;;0.00;0.00;;;38.80;62.50;;;;;;5054239;28;20219;-62
2023/08/21 09:15:08;;;;;;;0.00;0.00;;;38.60;64.80;;;;;;5054240;28;20165;-61
2023/08/21 09:17:34;;;;;;;0.00;0.00;;;38.60;66.10;;;;;;5054310;28;20173;-62
2023/08/21 09:20:04;;;;;;;0.00;0.00;;;38.80;65.10;;;;;;5054027;28;20252;-62
2023/08/21 09:22:30;;;;;;;0.00;0.00;;;38.90;63.00;;;;;;5054232;28;20187;-62
2023/08/21 09:25:11;;;;;;;0.10;0.10;;;38.90;65.30;;;;;;5053916;28;20180;-62
2023/08/21 09:27:38;;;;;;;0.08;0.05;;;39.00;64.80;;;;;;5054040;28;20177;-62
2023/08/21 09:30:14;;;;;;;0.00;0.00;;;39.10;66.10;;;;;;5053759;28;20311;-62
2023/08/21 09:32:57;;;;;;;0.00;0.00;;;39.20;65.20;;;;;;5053879;28;20682;-62
2023/08/21 09:35:24;;;;;;;0.08;0.08;;;39.40;64.60;;;;;;5054048;28;20184;-62
2023/08/21 09:37:52;;;;;;;0.00;0.00;;;39.20;63.40;;;;;;5053833;28;20231;-63
2023/08/21 09:40:18;;;;;;;0.00;0.00;;;38.90;63.90;;;;;;5053818;28;20228;-62
2023/08/21 09:42:44;;;;;;;1.27;0.55;;;38.70;62.80;;;;;;5053708;28;20235;-62
2023/08/21 09:45:09;;;;;;;0.00;0.00;;;38.60;65.00;;;;;;5053642;28;20184;-62
2023/08/21 09:47:35;;;;;;;0.00;0.00;;;38.50;64.40;;;;;;5053692;28;20231;-62
2023/08/21 09:50:01;;;;;;;0.00;0.00;;;38.70;62.70;;;;;;5053640;28;20177;-62
2023/08/21 09:52:27;;;;;;;0.00;0.00;;;38.90;63.00;;;;;;5053488;28;20285;-62
2023/08/21 09:54:53;;;;;;;0.00;0.00;;;39.20;64.00;;;;;;5053545;28;20181;-62
2023/08/21 09:57:22;;;;;;;0.00;0.00;;;39.40;63.00;;;;;;5053315;28;20185;-62
2023/08/21 09:59:53;;;;;;;0.00;0.00;;;39.50;60.50;;;;;;5053500;28;20169;-62
2023/08/21 10:02:21;;;;;;;0.00;0.00;;;39.60;61.10;;;;;;5053445;28;20687;-63
2023/08/21 10:04:49;;;;;;;0.00;0.00;;;39.80;60.00;;;;;;5053236;28;20165;-62
2023/08/21 10:07:20;;;;;;;0.00;0.00;;;39.80;62.60;;;;;;5053263;28;20195;-62
2023/08/21 10:09:46;;;;;;;0.08;0.08;;;39.80;59.90;;;;;;5052455;28;20227;-63
2023/08/21 10:12:14;;;;;;;0.00;0.00;;;39.90;61.70;;;;;;5053138;28;20213;-62
2023/08/21 10:14:40;;;;;;;0.00;0.00;;;39.80;60.00;;;;;;5053075;28;20643;-63
2023/08/21 10:17:07;;;;;;;0.00;0.00;;;40.00;59.80;;;;;;5053071;28;20181;-62
2023/08/21 10:19:34;;;;;;;0.00;0.00;;;40.10;58.80;;;;;;5053305;28;20734;-62
2023/08/21 10:22:00;;;;;;;0.00;0.00;;;40.20;58.70;;;;;;5052927;28;20538;-62
2023/08/21 10:24:31;;;;;;;0.00;0.00;;;40.30;57.70;;;;;;5053041;28;20173;-63
2023/08/21 10:26:59;;;;;;;0.00;0.00;;;40.30;56.80;;;;;;5052933;28;20188;-63
2023/08/21 10:29:25;;;;;;;0.00;0.00;;;40.40;57.30;;;;;;5052897;28;20316;-63
2023/08/21 10:32:02;;;;;;;0.00;0.00;;;40.20;57.30;;;;;;5052646;28;20743;-62
2023/08/21 10:34:37;;;;;;;0.00;0.00;;;40.10;56.50;;;;;;5052977;28;20184;-62
2023/08/21 10:37:06;;;;;;;0.00;0.00;;;40.00;56.90;;;;;;5052768;28;20164;-62
2023/08/21 10:39:33;;;;;;;0.05;0.05;;;40.00;57.00;;;;;;5052675;28;20177;-63
2023/08/21 10:42:09;;;;;;;0.00;0.00;;;40.10;57.40;;;;;;5052529;28;20286;-62
2023/08/21 10:44:41;;;;;;;0.00;0.00;;;39.90;56.60;;;;;;5052615;28;20699;-62
2023/08/21 10:47:31;;;;;;;0.90;0.08;;;39.80;56.00;;;;;;5052543;28;20173;-62
2023/08/21 10:49:57;;;;;;;0.00;0.00;;;40.00;57.60;;;;;;5052359;28;20272;-62
2023/08/21 10:52:28;;;;;;;0.00;0.00;;;40.00;56.80;;;;;;5052521;28;20300;-63
2023/08/21 10:54:56;;;;;;;0.05;0.05;;;40.10;55.10;;;;;;5052307;28;20706;-63
2023/08/21 10:57:24;;;;;;;0.00;0.00;;;40.00;54.80;;;;;;5052444;28;20791;-62
2023/08/21 11:00:11;;;;;;;0.00;0.00;;;39.80;54.80;;;;;;5052362;28;20188;-62
2023/08/21 11:02:38;;;;;;;0.10;0.00;;;39.60;55.30;;;;;;5052190;28;20165;-62
2023/08/21 11:05:04;;;;;;;0.00;0.00;;;39.60;55.60;;;;;;5052155;28;20204;-62
2023/08/21 11:07:30;;;;;;;0.20;0.20;;;39.60;55.70;;;;;;5052411;28;20187;-62
2023/08/21 11:09:56;;;;;;;0.00;0.00;;;39.70;55.70;;;;;;5051996;28;20180;-62
2023/08/21 11:12:24;;;;;;;0.00;0.00;;;39.70;56.30;;;;;;5052132;28;20212;-62
2023/08/21 11:14:50;;;;;;;0.00;0.00;;;39.70;56.30;;;;;;5052141;28;20185;-62
2023/08/21 11:17:17;;;;;;;0.00;0.00;;;39.40;56.20;;;;;;5051830;28;20659;-62
2023/08/21 11:19:43;;;;;;;0.00;0.00;;;39.00;56.50;;;;;;5051850;28;20656;-62
2023/08/21 11:22:08;;;;;;;0.00;0.00;;;39.00;57.40;;;;;;5051728;28;20271;-63
2023/08/21 11:24:37;;;;;;;0.10;0.10;;;39.00;57.70;;;;;;5051828;28;20176;-62
2023/08/21 11:27:07;;;;;;;0.00;0.00;;;38.80;58.20;;;;;;5051714;28;20575;-62
2023/08/21 11:29:47;;;;;;;0.10;0.10;;;38.60;57.20;;;;;;5051522;28;20777;-62
2023/08/21 11:32:23;;;;;;;0.10;0.10;;;38.30;57.70;;;;;;5051636;28;20295;-62
2023/08/21 11:34:53;;;;;;;0.30;0.30;;;38.20;59.10;;;;;;5051667;28;20184;-62
2023/08/21 11:37:24;;;;;;;0.10;0.10;;;38.10;58.10;;;;;;5051543;28;20184;-62
2023/08/21 11:39:55;;;;;;;0.00;0.00;;;38.10;57.70;;;;;;5051647;28;20558;-62
2023/08/21 11:42:23;;;;;;;0.25;0.25;;;38.00;58.60;;;;;;5051527;28;20177;-62
2023/08/21 11:44:52;;;;;;;0.10;0.10;;;37.80;57.50;;;;;;5051592;28;20223;-62
2023/08/21 11:47:20;;;;;;;0.52;0.52;;;37.40;58.70;;;;;;5051297;28;20608;-62
2023/08/21 11:49:48;;;;;;;0.00;0.00;;;37.00;60.50;;;;;;5051511;28;20260;-62
2023/08/21 11:52:19;;;;;;;0.00;0.00;;;36.70;60.40;;;;;;5051391;28;20274;-62
2023/08/21 11:54:48;;;;;;;0.28;0.08;;;36.40;62.20;;;;;;5051475;28;20273;-62
2023/08/21 11:57:14;;;;;;;0.20;0.20;;;36.20;61.90;;;;;;5051387;28;20209;-62
2023/08/21 11:59:40;;;;;;;0.20;0.13;;;36.00;62.80;;;;;;5051328;28;20177;-62
2023/08/21 12:02:10;;;;;;;0.00;0.00;;;35.80;63.00;;;;;;5051213;28;20530;-63
2023/08/21 12:04:35;;;;;;;0.00;0.00;;;35.50;62.80;;;;;;5051318;28;20680;-62
2023/08/21 12:07:01;;;;;;;0.00;0.00;;;35.50;63.90;;;;;;5051210;28;20640;-62
2023/08/21 12:09:27;;;;;;;0.00;0.00;;;35.50;63.80;;;;;;5051321;28;20169;-62
2023/08/21 12:11:52;;;;;;;0.15;0.08;;;35.90;65.20;;;;;;5051069;28;20640;-62
2023/08/21 12:14:18;;;;;;;0.00;0.00;;;36.20;63.60;;;;;;5051018;28;20260;-62
2023/08/21 12:16:43;;;;;;;0.00;0.00;;;36.50;64.90;;;;;;5051214;28;20173;-62
2023/08/21 12:19:11;;;;;;;0.00;0.00;;;36.60;62.50;;;;;;5051134;28;20172;-63
2023/08/21 12:21:37;;;;;;;0.10;0.10;;;36.50;62.50;;;;;;5051128;28;20318;-62
2023/08/21 12:24:04;;;;;;;0.03;0.03;;;36.60;61.30;;;;;;5051074;28;20184;-62
2023/08/21 12:26:30;;;;;;;0.00;0.00;;;36.60;61.00;;;;;;5051160;28;20704;-62
2023/08/21 12:28:56;;;;;;;0.00;0.00;;;36.80;60.90;;;;;;5050715;28;20370;-62
2023/08/21 12:31:21;;;;;;;0.20;0.20;;;37.10;62.70;;;;;;5050994;28;20649;-62
2023/08/21 12:33:47;;;;;;;0.00;0.00;;;37.50;63.20;;;;;;5054099;28;20287;-62
2023/08/21 12:36:12;;;;;;;0.10;0.10;;;37.80;60.10;;;;;;5054960;28;20254;-65
2023/08/21 12:38:38;;;;;;;0.50;0.50;;;37.80;59.80;;;;;;5054940;28;20177;-62
2023/08/21 12:41:03;;;;;;;0.00;0.00;;;37.90;59.40;;;;;;5054910;28;20172;-62
2023/08/21 12:43:29;;;;;;;0.00;0.00;;;38.20;60.90;;;;;;5054934;28;20177;-63
2023/08/21 12:45:55;;;;;;;0.15;0.10;;;38.40;59.20;;;;;;5054884;28;20184;-63